sensor_id;sensor_type;location;lat;lon;timestamp;pressure;altitude;pressure_sealevel;temperature;humidity
8699;BME280;4386;51.236;6.742;2023-11-18T00:00:15;97165.94;;;10.32;57.61
8699;BME280;4386;51.236;6.742;2023-11-18T00:01:20;97164.72;;;10.28;57.75
8699;BME280;4386;51.236;6.742;2023-11-18T00:02:25;97158.63;;;10.28;57.88
8699;BME280;4386;51.236;6.742;2023-11-18T00:03:29;97165.53;;;10.29;57.92
8699;BME280;4386;51.236;6.742;2023-11-18T00:04:34;97167.59;;;10.27;57.99
8699;BME280;4386;51.236;6.742;2023-11-18T00:05:38;97163.50;;;10.24;57.97
8699;BME280;4386;51.236;6.742;2023-11-18T00:06:42;97165.56;;;10.22;58.14
8699;BME280;4386;51.236;6.742;2023-11-18T00:07:47;97168.41;;;10.21;58.07
8699;BME280;4386;51.236;6.742;2023-11-18T00:08:51;97163.91;;;10.21;58.04
8699;BME280;4386;51.236;6.742;2023-11-18T00:09:56;97168.41;;;10.21;58.28
8699;BME280;4386;51.236;6.742;2023-11-18T00:11:00;97167.78;;;10.19;58.23
8699;BME280;4386;51.236;6.742;2023-11-18T00:12:06;97163.50;;;10.18;58.21
8699;BME280;4386;51.236;6.742;2023-11-18T00:13:09;97162.91;;;10.16;58.15
8699;BME280;4386;51.236;6.742;2023-11-18T00:14:13;97161.28;;;10.15;58.30
8699;BME280;4386;51.236;6.742;2023-11-18T00:15:18;97158.19;;;10.11;58.33
8699;BME280;4386;51.236;6.742;2023-11-18T00:16:23;97165.53;;;10.09;58.21
8699;BME280;4386;51.236;6.742;2023-11-18T00:17:27;97164.72;;;10.09;58.46
8699;BME280;4386;51.236;6.742;2023-11-18T00:18:31;97165.53;;;10.09;58.34
8699;BME280;4386;51.236;6.742;2023-11-18T00:19:36;97164.72;;;10.09;58.53
8699;BME280;4386;51.236;6.742;2023-11-18T00:20:41;97167.78;;;10.06;58.60
8699;BME280;4386;51.236;6.742;2023-11-18T00:21:46;97167.16;;;10.04;58.46
8699;BME280;4386;51.236;6.742;2023-11-18T00:22:51;97172.88;;;10.01;58.55
8699;BME280;4386;51.236;6.742;2023-11-18T00:23:56;97171.03;;;10.01;58.51
8699;BME280;4386;51.236;6.742;2023-11-18T00:25:01;97174.47;;;10.02;58.57
8699;BME280;4386;51.236;6.742;2023-11-18T00:26:04;97172.47;;;10.04;58.63
8699;BME280;4386;51.236;6.742;2023-11-18T00:27:11;97170.41;;;10.06;58.55
8699;BME280;4386;51.236;6.742;2023-11-18T00:28:18;97178.16;;;10.07;58.42
8699;BME280;4386;51.236;6.742;2023-11-18T00:29:22;97192.00;;;10.09;58.40
8699;BME280;4386;51.236;6.742;2023-11-18T00:30:26;97185.06;;;10.08;58.58
8699;BME280;4386;51.236;6.742;2023-11-18T00:31:31;97186.28;;;10.06;58.40
8699;BME280;4386;51.236;6.742;2023-11-18T00:32:34;97186.69;;;10.03;58.55
8699;BME280;4386;51.236;6.742;2023-11-18T00:33:40;97192.41;;;10.00;58.52
8699;BME280;4386;51.236;6.742;2023-11-18T00:34:45;97188.94;;;9.99;58.50
8699;BME280;4386;51.236;6.742;2023-11-18T00:35:48;97183.84;;;9.98;58.67
8699;BME280;4386;51.236;6.742;2023-11-18T00:36:53;97181.81;;;10.00;58.71
8699;BME280;4386;51.236;6.742;2023-11-18T00:37:57;97185.06;;;10.02;58.71
8699;BME280;4386;51.236;6.742;2023-11-18T00:39:02;97181.63;;;10.01;58.46
8699;BME280;4386;51.236;6.742;2023-11-18T00:40:08;97189.56;;;10.01;58.63
8699;BME280;4386;51.236;6.742;2023-11-18T00:41:14;97188.75;;;10.01;58.52
8699;BME280;4386;51.236;6.742;2023-11-18T00:42:17;97184.28;;;10.01;58.44
8699;BME280;4386;51.236;6.742;2023-11-18T00:43:22;97183.84;;;10.04;58.54
8699;BME280;4386;51.236;6.742;2023-11-18T00:44:25;97183.03;;;10.04;58.36
8699;BME280;4386;51.236;6.742;2023-11-18T00:45:30;97182.22;;;10.03;58.48
8699;BME280;4386;51.236;6.742;2023-11-18T00:46:34;97174.47;;;10.02;58.53
8699;BME280;4386;51.236;6.742;2023-11-18T00:47:39;97181.81;;;10.00;58.54
8699;BME280;4386;51.236;6.742;2023-11-18T00:48:44;97189.16;;;9.98;58.55
8699;BME280;4386;51.236;6.742;2023-11-18T00:49:50;97191.97;;;9.96;58.55
8699;BME280;4386;51.236;6.742;2023-11-18T00:50:55;97191.16;;;9.95;58.35
8699;BME280;4386;51.236;6.742;2023-11-18T00:51:59;97191.38;;;9.94;58.61
8699;BME280;4386;51.236;6.742;2023-11-18T00:53:03;97184.25;;;9.94;58.61
8699;BME280;4386;51.236;6.742;2023-11-18T00:54:08;97188.94;;;9.92;58.50
8699;BME280;4386;51.236;6.742;2023-11-18T00:55:13;97196.84;;;9.92;58.61
8699;BME280;4386;51.236;6.742;2023-11-18T00:56:16;97197.25;;;9.89;58.70
8699;BME280;4386;51.236;6.742;2023-11-18T00:57:21;97200.13;;;9.88;58.59
8699;BME280;4386;51.236;6.742;2023-11-18T00:58:25;97198.50;;;9.87;58.81
8699;BME280;4386;51.236;6.742;2023-11-18T00:59:29;97199.31;;;9.87;58.63
8699;BME280;4386;51.236;6.742;2023-11-18T01:00:34;97203.16;;;9.85;58.66
8699;BME280;4386;51.236;6.742;2023-11-18T01:01:39;97203.97;;;9.85;58.71
8699;BME280;4386;51.236;6.742;2023-11-18T01:02:44;97205.00;;;9.84;58.97
8699;BME280;4386;51.236;6.742;2023-11-18T01:03:47;97196.25;;;9.84;58.73
8699;BME280;4386;51.236;6.742;2023-11-18T01:04:54;97203.38;;;9.83;58.97
8699;BME280;4386;51.236;6.742;2023-11-18T01:05:58;97211.31;;;9.83;58.77
8699;BME280;4386;51.236;6.742;2023-11-18T01:07:03;97206.19;;;9.82;58.71
8699;BME280;4386;51.236;6.742;2023-11-18T01:08:07;97210.69;;;9.81;58.88
8699;BME280;4386;51.236;6.742;2023-11-18T01:09:11;97211.06;;;9.78;58.87
8699;BME280;4386;51.236;6.742;2023-11-18T01:10:15;97205.59;;;9.73;58.93
8699;BME280;4386;51.236;6.742;2023-11-18T01:11:22;97205.38;;;9.68;59.10
8699;BME280;4386;51.236;6.742;2023-11-18T01:12:25;97209.03;;;9.67;59.33
8699;BME280;4386;51.236;6.742;2023-11-18T01:13:30;97209.03;;;9.67;59.14
8699;BME280;4386;51.236;6.742;2023-11-18T01:14:34;97212.50;;;9.68;59.18
8699;BME280;4386;51.236;6.742;2023-11-18T01:15:41;97219.63;;;9.67;59.29
8699;BME280;4386;51.236;6.742;2023-11-18T01:16:45;97215.97;;;9.68;59.35
8699;BME280;4386;51.236;6.742;2023-11-18T01:17:49;97220.03;;;9.71;59.20
8699;BME280;4386;51.236;6.742;2023-11-18T01:19:00;97220.03;;;9.71;59.08
8699;BME280;4386;51.236;6.742;2023-11-18T01:20:08;97225.31;;;9.71;59.30
8699;BME280;4386;51.236;6.742;2023-11-18T01:21:14;97221.03;;;9.70;59.26
8699;BME280;4386;51.236;6.742;2023-11-18T01:22:20;97222.25;;;9.67;59.36
8699;BME280;4386;51.236;6.742;2023-11-18T01:23:24;97231.59;;;9.63;59.21
8699;BME280;4386;51.236;6.742;2023-11-18T01:24:28;97230.34;;;9.59;59.41
8699;BME280;4386;51.236;6.742;2023-11-18T01:25:32;97231.41;;;9.58;59.33
8699;BME280;4386;51.236;6.742;2023-11-18T01:26:37;97227.09;;;9.57;59.65
8699;BME280;4386;51.236;6.742;2023-11-18T01:27:41;97231.78;;;9.55;59.71
8699;BME280;4386;51.236;6.742;2023-11-18T01:28:49;97234.63;;;9.54;59.89
8699;BME280;4386;51.236;6.742;2023-11-18T01:29:53;97240.72;;;9.54;60.09
8699;BME280;4386;51.236;6.742;2023-11-18T01:30:57;97231.16;;;9.53;60.34
8699;BME280;4386;51.236;6.742;2023-11-18T01:32:01;97231.78;;;9.55;60.14
8699;BME280;4386;51.236;6.742;2023-11-18T01:33:12;97241.53;;;9.55;60.49
8699;BME280;4386;51.236;6.742;2023-11-18T01:34:18;97238.09;;;9.54;nan
8699;BME280;4386;51.236;6.742;2023-11-18T01:35:27;97240.91;;;9.53;60.63
8699;BME280;4386;51.236;6.742;2023-11-18T01:36:30;97239.09;;;9.53;60.55
8699;BME280;4386;51.236;6.742;2023-11-18T01:37:35;97248.03;;;9.52;60.66
8699;BME280;4386;51.236;6.742;2023-11-18T01:38:39;97251.47;;;9.53;60.85
8699;BME280;4386;51.236;6.742;2023-11-18T01:39:44;97244.38;;;9.53;60.77
8699;BME280;4386;51.236;6.742;2023-11-18T01:40:47;97248.03;;;9.52;60.69
8699;BME280;4386;51.236;6.742;2023-11-18T01:41:52;97255.94;;;9.52;60.85
8699;BME280;4386;51.236;6.742;2023-11-18T01:42:56;97254.94;;;9.53;60.77
8699;BME280;4386;51.236;6.742;2023-11-18T01:44:00;97252.31;;;9.53;60.93
8699;BME280;4386;51.236;6.742;2023-11-18T01:45:05;97249.66;;;9.53;60.76
8699;BME280;4386;51.236;6.742;2023-11-18T01:46:11;97254.94;;;9.53;61.17
8699;BME280;4386;51.236;6.742;2023-11-18T01:47:16;97251.31;;;9.54;61.05
8699;BME280;4386;51.236;6.742;2023-11-18T01:48:20;97247.44;;;9.57;61.11
8699;BME280;4386;51.236;6.742;2023-11-18T01:49:26;97248.88;;;9.59;60.95
8699;BME280;4386;51.236;6.742;2023-11-18T01:50:32;97250.50;;;9.60;61.05
8699;BME280;4386;51.236;6.742;2023-11-18T01:51:35;97257.59;;;9.60;60.93
8699;BME280;4386;51.236;6.742;2023-11-18T01:52:40;97256.78;;;9.59;61.09
8699;BME280;4386;51.236;6.742;2023-11-18T01:53:49;97261.06;;;9.60;61.16
8699;BME280;4386;51.236;6.742;2023-11-18T01:54:54;97259.44;;;9.59;61.20
8699;BME280;4386;51.236;6.742;2023-11-18T01:55:58;97252.53;;;9.58;61.11
8699;BME280;4386;51.236;6.742;2023-11-18T01:57:04;97248.25;;;9.57;61.25
8699;BME280;4386;51.236;6.742;2023-11-18T01:58:09;97257.00;;;9.58;61.19
8699;BME280;4386;51.236;6.742;2023-11-18T01:59:14;97254.53;;;9.56;61.13
8699;BME280;4386;51.236;6.742;2023-11-18T02:00:21;97252.94;;;9.55;61.27
8699;BME280;4386;51.236;6.742;2023-11-18T02:01:26;97260.22;;;9.53;61.15
8699;BME280;4386;51.236;6.742;2023-11-18T02:02:31;97253.31;;;9.52;61.40
8699;BME280;4386;51.236;6.742;2023-11-18T02:03:36;97255.34;;;9.50;61.34
8699;BME280;4386;51.236;6.742;2023-11-18T02:04:41;97255.34;;;9.50;61.27
8699;BME280;4386;51.236;6.742;2023-11-18T02:05:49;97257.16;;;9.50;61.34
8699;BME280;4386;51.236;6.742;2023-11-18T02:06:54;97256.16;;;9.51;61.02
8699;BME280;4386;51.236;6.742;2023-11-18T02:07:59;97251.69;;;9.51;61.32
8699;BME280;4386;51.236;6.742;2023-11-18T02:09:04;97255.94;;;9.52;61.32
8699;BME280;4386;51.236;6.742;2023-11-18T02:10:08;97258.59;;;9.52;61.12
8699;BME280;4386;51.236;6.742;2023-11-18T02:11:19;97253.13;;;9.54;61.08
8699;BME280;4386;51.236;6.742;2023-11-18T02:12:29;97254.94;;;9.53;60.69
8699;BME280;4386;51.236;6.742;2023-11-18T02:13:39;97259.22;;;9.54;60.71
8699;BME280;4386;51.236;6.742;2023-11-18T02:14:45;97262.47;;;9.56;60.62
8699;BME280;4386;51.236;6.742;2023-11-18T02:15:50;97259.84;;;9.56;60.44
8699;BME280;4386;51.236;6.742;2023-11-18T02:17:14;97257.41;;;9.55;60.47
8699;BME280;4386;51.236;6.742;2023-11-18T02:18:40;97257.59;;;9.53;60.29
8699;BME280;4386;51.236;6.742;2023-11-18T02:20:05;97264.28;;;9.49;60.55
8699;BME280;4386;51.236;6.742;2023-11-18T02:21:18;97266.31;;;9.47;60.84
8699;BME280;4386;51.236;6.742;2023-11-18T02:22:22;97269.16;;;9.46;60.82
8699;BME280;4386;51.236;6.742;2023-11-18T02:23:27;97264.06;;;9.44;60.66
8699;BME280;4386;51.236;6.742;2023-11-18T02:24:31;97265.91;;;9.43;60.82
8699;BME280;4386;51.236;6.742;2023-11-18T02:25:45;97264.25;;;9.42;60.91
8699;BME280;4386;51.236;6.742;2023-11-18T02:26:49;97265.06;;;9.43;60.74
8699;BME280;4386;51.236;6.742;2023-11-18T02:27:54;97269.34;;;9.44;60.89
8699;BME280;4386;51.236;6.742;2023-11-18T02:28:57;97264.69;;;9.46;60.70
8699;BME280;4386;51.236;6.742;2023-11-18T02:30:02;97278.53;;;9.48;60.59
8699;BME280;4386;51.236;6.742;2023-11-18T02:31:18;97272.84;;;9.51;60.45
8699;BME280;4386;51.236;6.742;2023-11-18T02:32:29;97281.38;;;9.53;60.14
8699;BME280;4386;51.236;6.742;2023-11-18T02:33:36;97280.97;;;9.56;60.26
8699;BME280;4386;51.236;6.742;2023-11-18T02:34:48;97284.25;;;9.58;60.00
8699;BME280;4386;51.236;6.742;2023-11-18T02:36:02;97284.03;;;9.60;60.33
8699;BME280;4386;51.236;6.742;2023-11-18T02:37:09;97283.88;;;9.61;60.10
8699;BME280;4386;51.236;6.742;2023-11-18T02:38:19;97281.22;;;9.61;60.20
8699;BME280;4386;51.236;6.742;2023-11-18T02:39:29;97280.59;;;9.59;59.99
8699;BME280;4386;51.236;6.742;2023-11-18T02:40:39;97277.34;;;9.57;60.21
8699;BME280;4386;51.236;6.742;2023-11-18T02:41:51;97283.63;;;9.56;60.11
8699;BME280;4386;51.236;6.742;2023-11-18T02:42:57;97275.69;;;9.56;60.24
8699;BME280;4386;51.236;6.742;2023-11-18T02:44:03;97282.63;;;9.57;60.29
8699;BME280;4386;51.236;6.742;2023-11-18T02:45:13;97288.72;;;9.58;60.20
8699;BME280;4386;51.236;6.742;2023-11-18T02:46:20;97288.91;;;9.56;60.20
8699;BME280;4386;51.236;6.742;2023-11-18T02:47:26;97291.34;;;9.51;59.90
8699;BME280;4386;51.236;6.742;2023-11-18T02:48:31;97301.69;;;9.46;60.17
8699;BME280;4386;51.236;6.742;2023-11-18T02:49:36;97297.19;;;9.40;60.35
8699;BME280;4386;51.236;6.742;2023-11-18T02:50:40;97303.25;;;9.34;60.48
8699;BME280;4386;51.236;6.742;2023-11-18T02:51:45;97287.59;;;9.26;60.64
8699;BME280;4386;51.236;6.742;2023-11-18T02:52:50;97291.22;;;9.25;60.85
8699;BME280;4386;51.236;6.742;2023-11-18T02:53:54;97296.50;;;9.25;61.07
8699;BME280;4386;51.236;6.742;2023-11-18T02:54:59;97297.34;;;9.25;60.87
8699;BME280;4386;51.236;6.742;2023-11-18T02:56:03;97299.16;;;9.25;60.98
8699;BME280;4386;51.236;6.742;2023-11-18T02:57:10;97300.38;;;9.22;60.98
8699;BME280;4386;51.236;6.742;2023-11-18T02:58:16;97304.00;;;9.21;61.13
8699;BME280;4386;51.236;6.742;2023-11-18T02:59:21;97302.19;;;9.22;61.23
8699;BME280;4386;51.236;6.742;2023-11-18T03:00:24;97308.28;;;9.22;61.06
8699;BME280;4386;51.236;6.742;2023-11-18T03:01:31;97308.28;;;9.22;61.08
8699;BME280;4386;51.236;6.742;2023-11-18T03:02:35;97302.19;;;9.22;61.20
8699;BME280;4386;51.236;6.742;2023-11-18T03:03:42;97299.94;;;9.19;61.37
8699;BME280;4386;51.236;6.742;2023-11-18T03:04:46;97308.03;;;9.17;61.47
8699;BME280;4386;51.236;6.742;2023-11-18T03:05:51;97314.94;;;9.12;61.59
8699;BME280;4386;51.236;6.742;2023-11-18T03:06:54;97315.72;;;9.06;61.70
8699;BME280;4386;51.236;6.742;2023-11-18T03:07:59;97315.84;;;8.98;61.97
8699;BME280;4386;51.236;6.742;2023-11-18T03:09:03;97322.91;;;8.90;62.09
8699;BME280;4386;51.236;6.742;2023-11-18T03:10:10;97318.41;;;8.84;62.45
8699;BME280;4386;51.236;6.742;2023-11-18T03:11:42;97316.09;;;8.75;62.35
8699;BME280;4386;51.236;6.742;2023-11-18T03:13:07;97317.06;;;8.67;62.65
8699;BME280;4386;51.236;6.742;2023-11-18T03:14:29;97317.81;;;8.61;62.83
8699;BME280;4386;51.236;6.742;2023-11-18T03:15:52;97320.84;;;8.58;63.09
8699;BME280;4386;51.236;6.742;2023-11-18T03:17:13;97311.66;;;8.54;63.43
8699;BME280;4386;51.236;6.742;2023-11-18T03:18:38;97319.97;;;8.51;62.89
8699;BME280;4386;51.236;6.742;2023-11-18T03:20:01;97319.34;;;8.49;62.95
8699;BME280;4386;51.236;6.742;2023-11-18T03:21:26;97319.78;;;8.53;63.27
8699;BME280;4386;51.236;6.742;2023-11-18T03:22:49;97318.97;;;8.52;63.07
8699;BME280;4386;51.236;6.742;2023-11-18T03:24:13;97321.19;;;8.49;63.08
8699;BME280;4386;51.236;6.742;2023-11-18T03:25:36;97335.75;;;8.45;62.85
8699;BME280;4386;51.236;6.742;2023-11-18T03:27:00;97328.16;;;8.35;63.03
8699;BME280;4386;51.236;6.742;2023-11-18T03:28:03;97333.38;;;8.28;63.51
8699;BME280;4386;51.236;6.742;2023-11-18T03:29:11;97336.94;;;8.21;63.55
8699;BME280;4386;51.236;6.742;2023-11-18T03:30:16;97346.59;;;8.14;63.65
8699;BME280;4386;51.236;6.742;2023-11-18T03:31:21;97340.44;;;8.07;64.02
8699;BME280;4386;51.236;6.742;2023-11-18T03:32:25;97343.63;;;8.02;64.46
8699;BME280;4386;51.236;6.742;2023-11-18T03:33:30;97337.91;;;7.99;63.90
8699;BME280;4386;51.236;6.742;2023-11-18T03:34:33;97344.22;;;7.98;64.22
8699;BME280;4386;51.236;6.742;2023-11-18T03:35:38;97337.66;;;7.94;64.49
8699;BME280;4386;51.236;6.742;2023-11-18T03:36:44;97341.66;;;7.90;64.76
8699;BME280;4386;51.236;6.742;2023-11-18T03:37:49;97344.69;;;7.86;64.81
8699;BME280;4386;51.236;6.742;2023-11-18T03:38:54;97348.31;;;7.85;64.79
8699;BME280;4386;51.236;6.742;2023-11-18T03:39:59;97353.56;;;7.85;64.91
8699;BME280;4386;51.236;6.742;2023-11-18T03:41:03;97351.59;;;7.88;64.79
8699;BME280;4386;51.236;6.742;2023-11-18T03:42:08;97354.47;;;7.93;65.22
8699;BME280;4386;51.236;6.742;2023-11-18T03:43:11;97359.00;;;7.99;64.43
8699;BME280;4386;51.236;6.742;2023-11-18T03:44:18;97356.44;;;8.05;64.30
8699;BME280;4386;51.236;6.742;2023-11-18T03:45:21;97355.88;;;8.10;64.12
8699;BME280;4386;51.236;6.742;2023-11-18T03:46:26;97358.41;;;8.18;64.14
8699;BME280;4386;51.236;6.742;2023-11-18T03:47:34;97361.47;;;8.21;63.93
8699;BME280;4386;51.236;6.742;2023-11-18T03:48:39;97359.28;;;8.25;63.70
8699;BME280;4386;51.236;6.742;2023-11-18T03:49:42;97362.22;;;8.30;63.49
8699;BME280;4386;51.236;6.742;2023-11-18T03:50:47;97370.38;;;8.35;63.40
8699;BME280;4386;51.236;6.742;2023-11-18T03:51:50;97362.06;;;8.38;63.28
8699;BME280;4386;51.236;6.742;2023-11-18T03:52:55;97371.25;;;8.42;63.08
8699;BME280;4386;51.236;6.742;2023-11-18T03:53:59;97372.91;;;8.43;62.96
8699;BME280;4386;51.236;6.742;2023-11-18T03:55:04;97374.72;;;8.43;63.08
8699;BME280;4386;51.236;6.742;2023-11-18T03:56:08;97370.44;;;8.42;63.06
8699;BME280;4386;51.236;6.742;2023-11-18T03:57:13;97374.88;;;8.41;63.38
8699;BME280;4386;51.236;6.742;2023-11-18T03:58:16;97370.81;;;8.38;63.13
8699;BME280;4386;51.236;6.742;2023-11-18T03:59:22;97365.91;;;8.35;63.37
8699;BME280;4386;51.236;6.742;2023-11-18T04:00:26;97375.84;;;8.33;63.49
8699;BME280;4386;51.236;6.742;2023-11-18T04:01:32;97378.66;;;8.32;63.88
8699;BME280;4386;51.236;6.742;2023-11-18T04:02:36;97370.75;;;8.32;63.81
8699;BME280;4386;51.236;6.742;2023-11-18T04:04:01;97378.50;;;8.33;63.80
8699;BME280;4386;51.236;6.742;2023-11-18T04:05:26;97377.66;;;8.33;63.81
8699;BME280;4386;51.236;6.742;2023-11-18T04:06:48;97382.13;;;8.32;63.96
8699;BME280;4386;51.236;6.742;2023-11-18T04:08:11;97379.47;;;8.32;63.95
8699;BME280;4386;51.236;6.742;2023-11-18T04:09:34;97373.38;;;8.32;64.01
8699;BME280;4386;51.236;6.742;2023-11-18T04:10:57;97377.03;;;8.31;63.77
8699;BME280;4386;51.236;6.742;2023-11-18T04:12:19;97381.41;;;8.24;64.08
8699;BME280;4386;51.236;6.742;2023-11-18T04:13:43;97392.25;;;8.14;64.19
8699;BME280;4386;51.236;6.742;2023-11-18T04:15:08;97387.91;;;8.07;64.49
8699;BME280;4386;51.236;6.742;2023-11-18T04:16:32;97387.56;;;7.95;64.58
8699;BME280;4386;51.236;6.742;2023-11-18T04:17:54;97385.41;;;7.84;64.57
8699;BME280;4386;51.236;6.742;2023-11-18T04:19:17;97386.31;;;7.76;64.97
8699;BME280;4386;51.236;6.742;2023-11-18T04:20:39;97386.53;;;7.75;65.34
8699;BME280;4386;51.236;6.742;2023-11-18T04:22:02;97382.25;;;7.74;65.56
8699;BME280;4386;51.236;6.742;2023-11-18T04:23:25;97383.44;;;7.71;65.32
8699;BME280;4386;51.236;6.742;2023-11-18T04:24:30;97382.41;;;7.72;65.68
8699;BME280;4386;51.236;6.742;2023-11-18T04:25:33;97386.69;;;7.73;65.62
8699;BME280;4386;51.236;6.742;2023-11-18T04:26:38;97392.63;;;7.75;65.49
8699;BME280;4386;51.236;6.742;2023-11-18T04:27:42;97391.59;;;7.76;65.37
8699;BME280;4386;51.236;6.742;2023-11-18T04:28:48;97396.03;;;7.76;65.71
8699;BME280;4386;51.236;6.742;2023-11-18T04:29:53;97395.06;;;7.77;65.34
8699;BME280;4386;51.236;6.742;2023-11-18T04:30:58;97393.63;;;7.74;65.55
8699;BME280;4386;51.236;6.742;2023-11-18T04:32:04;97395.59;;;7.72;65.60
8699;BME280;4386;51.236;6.742;2023-11-18T04:33:07;97396.97;;;7.68;65.64
8699;BME280;4386;51.236;6.742;2023-11-18T04:34:12;97391.81;;;7.60;65.65
8699;BME280;4386;51.236;6.742;2023-11-18T04:35:16;97390.88;;;7.53;65.92
8699;BME280;4386;51.236;6.742;2023-11-18T04:36:21;97389.19;;;7.46;66.28
8699;BME280;4386;51.236;6.742;2023-11-18T04:37:25;97391.38;;;7.42;66.31
8699;BME280;4386;51.236;6.742;2023-11-18T04:38:29;97388.66;;;7.36;66.49
8699;BME280;4386;51.236;6.742;2023-11-18T04:39:33;97389.81;;;7.33;66.37
8699;BME280;4386;51.236;6.742;2023-11-18T04:40:38;97393.81;;;7.29;66.60
8699;BME280;4386;51.236;6.742;2023-11-18T04:41:44;97395.63;;;7.28;66.83
8699;BME280;4386;51.236;6.742;2023-11-18T04:42:48;97392.19;;;7.28;66.47
8699;BME280;4386;51.236;6.742;2023-11-18T04:43:52;97397.91;;;7.31;66.58
8699;BME280;4386;51.236;6.742;2023-11-18T04:44:56;97393.25;;;7.33;66.50
8699;BME280;4386;51.236;6.742;2023-11-18T04:46:04;97392.72;;;7.38;66.44
8699;BME280;4386;51.236;6.742;2023-11-18T04:47:08;97394.38;;;7.39;66.52
8699;BME280;4386;51.236;6.742;2023-11-18T04:48:14;97401.25;;;7.40;66.48
8699;BME280;4386;51.236;6.742;2023-11-18T04:49:18;97403.25;;;7.38;66.59
8699;BME280;4386;51.236;6.742;2023-11-18T04:50:22;97400.00;;;7.36;66.64
8699;BME280;4386;51.236;6.742;2023-11-18T04:51:26;97397.78;;;7.40;66.60
8699;BME280;4386;51.236;6.742;2023-11-18T04:52:31;97401.91;;;7.42;66.53
8699;BME280;4386;51.236;6.742;2023-11-18T04:53:38;97409.44;;;7.45;66.85
8699;BME280;4386;51.236;6.742;2023-11-18T04:54:43;97411.06;;;7.46;66.75
8699;BME280;4386;51.236;6.742;2023-11-18T04:55:47;97409.44;;;7.45;66.75
8699;BME280;4386;51.236;6.742;2023-11-18T04:56:51;97408.41;;;7.46;66.41
8699;BME280;4386;51.236;6.742;2023-11-18T04:57:55;97405.16;;;7.44;66.45
8699;BME280;4386;51.236;6.742;2023-11-18T04:59:00;97408.16;;;7.41;67.06
8699;BME280;4386;51.236;6.742;2023-11-18T05:00:04;97413.78;;;7.38;66.57
8699;BME280;4386;51.236;6.742;2023-11-18T05:01:15;97411.88;;;7.32;66.87
8699;BME280;4386;51.236;6.742;2023-11-18T05:02:21;97407.34;;;7.26;66.89
8699;BME280;4386;51.236;6.742;2023-11-18T05:03:25;97417.22;;;7.24;66.90
8699;BME280;4386;51.236;6.742;2023-11-18T05:04:30;97416.41;;;7.23;67.38
8699;BME280;4386;51.236;6.742;2023-11-18T05:05:33;97413.97;;;7.22;67.33
8699;BME280;4386;51.236;6.742;2023-11-18T05:06:40;97413.97;;;7.22;67.36
8699;BME280;4386;51.236;6.742;2023-11-18T05:07:44;97413.31;;;7.20;67.04
8699;BME280;4386;51.236;6.742;2023-11-18T05:08:49;97412.31;;;7.21;66.99
8699;BME280;4386;51.236;6.742;2023-11-18T05:09:53;97407.88;;;7.21;66.91
8699;BME280;4386;51.236;6.742;2023-11-18T05:10:57;97415.63;;;7.23;67.23
8699;BME280;4386;51.236;6.742;2023-11-18T05:12:01;97417.22;;;7.24;67.23
8699;BME280;4386;51.236;6.742;2023-11-18T05:13:05;97405.69;;;7.25;67.26
8699;BME280;4386;51.236;6.742;2023-11-18T05:14:09;97410.59;;;7.28;67.03
8699;BME280;4386;51.236;6.742;2023-11-18T05:15:14;97417.16;;;7.32;67.04
8699;BME280;4386;51.236;6.742;2023-11-18T05:16:19;97414.31;;;7.33;67.01
8699;BME280;4386;51.236;6.742;2023-11-18T05:17:26;97415.81;;;7.36;66.85
8699;BME280;4386;51.236;6.742;2023-11-18T05:18:30;97414.41;;;7.40;66.81
8699;BME280;4386;51.236;6.742;2023-11-18T05:19:39;97421.59;;;7.46;66.53
8699;BME280;4386;51.236;6.742;2023-11-18T05:20:42;97413.53;;;7.48;66.38
8699;BME280;4386;51.236;6.742;2023-11-18T05:21:47;97419.63;;;7.48;66.44
8699;BME280;4386;51.236;6.742;2023-11-18T05:22:52;97414.97;;;7.50;66.35
8699;BME280;4386;51.236;6.742;2023-11-18T05:23:57;97417.44;;;7.52;66.23
8699;BME280;4386;51.236;6.742;2023-11-18T05:25:00;97419.06;;;7.53;66.43
8699;BME280;4386;51.236;6.742;2023-11-18T05:26:05;97424.16;;;7.54;66.08
8699;BME280;4386;51.236;6.742;2023-11-18T05:27:09;97425.78;;;7.55;66.53
8699;BME280;4386;51.236;6.742;2023-11-18T05:28:15;97420.16;;;7.58;66.26
8699;BME280;4386;51.236;6.742;2023-11-18T05:29:19;97424.06;;;7.62;66.41
8699;BME280;4386;51.236;6.742;2023-11-18T05:30:24;97424.34;;;7.67;66.34
8699;BME280;4386;51.236;6.742;2023-11-18T05:31:29;97425.59;;;7.71;65.90
8699;BME280;4386;51.236;6.742;2023-11-18T05:32:35;97421.25;;;7.78;65.56
8699;BME280;4386;51.236;6.742;2023-11-18T05:33:40;97425.94;;;7.83;65.77
8699;BME280;4386;51.236;6.742;2023-11-18T05:34:44;97429.41;;;7.83;65.65
8699;BME280;4386;51.236;6.742;2023-11-18T05:35:49;97427.75;;;7.82;65.49
8699;BME280;4386;51.236;6.742;2023-11-18T05:36:52;97424.13;;;7.83;65.64
8699;BME280;4386;51.236;6.742;2023-11-18T05:37:57;97426.75;;;7.83;65.38
8699;BME280;4386;51.236;6.742;2023-11-18T05:39:01;97429.78;;;7.80;65.01
8699;BME280;4386;51.236;6.742;2023-11-18T05:40:08;97429.16;;;7.78;65.26
8699;BME280;4386;51.236;6.742;2023-11-18T05:41:12;97428.03;;;7.73;65.34
8699;BME280;4386;51.236;6.742;2023-11-18T05:42:19;97433.69;;;7.70;65.09
8699;BME280;4386;51.236;6.742;2023-11-18T05:43:24;97432.84;;;7.69;65.02
8699;BME280;4386;51.236;6.742;2023-11-18T05:44:32;97420.69;;;7.68;65.33
8699;BME280;4386;51.236;6.742;2023-11-18T05:45:40;97415.44;;;7.68;65.30
8699;BME280;4386;51.236;6.742;2023-11-18T05:47:07;97415.06;;;7.71;65.22
8699;BME280;4386;51.236;6.742;2023-11-18T05:48:10;97416.06;;;7.70;65.31
8699;BME280;4386;51.236;6.742;2023-11-18T05:49:16;97422.31;;;7.69;65.15
8699;BME280;4386;51.236;6.742;2023-11-18T05:50:19;97416.59;;;7.66;65.46
8699;BME280;4386;51.236;6.742;2023-11-18T05:51:25;97419.44;;;7.64;65.16
8699;BME280;4386;51.236;6.742;2023-11-18T05:52:29;97419.13;;;7.59;65.40
8699;BME280;4386;51.236;6.742;2023-11-18T05:53:34;97410.81;;;7.56;65.16
8699;BME280;4386;51.236;6.742;2023-11-18T05:54:39;97420.91;;;7.52;65.41
8699;BME280;4386;51.236;6.742;2023-11-18T05:55:43;97418.63;;;7.49;65.63
8699;BME280;4386;51.236;6.742;2023-11-18T05:56:47;97412.69;;;7.47;65.57
8699;BME280;4386;51.236;6.742;2023-11-18T05:57:53;97414.72;;;7.45;65.58
8699;BME280;4386;51.236;6.742;2023-11-18T05:58:57;97416.31;;;7.46;65.40
8699;BME280;4386;51.236;6.742;2023-11-18T06:00:02;97427.88;;;7.45;65.67
8699;BME280;4386;51.236;6.742;2023-11-18T06:01:08;97416.31;;;7.46;65.59
8699;BME280;4386;51.236;6.742;2023-11-18T06:02:49;97415.16;;;7.49;65.43
8699;BME280;4386;51.236;6.742;2023-11-18T06:04:12;97420.91;;;7.52;64.88
8699;BME280;4386;51.236;6.742;2023-11-18T06:05:26;97420.53;;;7.55;65.22
8699;BME280;4386;51.236;6.742;2023-11-18T06:06:32;97413.25;;;7.57;65.13
8699;BME280;4386;51.236;6.742;2023-11-18T06:07:37;97411.59;;;7.56;64.71
8699;BME280;4386;51.236;6.742;2023-11-18T06:08:43;97417.06;;;7.55;64.63
8699;BME280;4386;51.236;6.742;2023-11-18T06:09:47;97421.69;;;7.53;64.75